createdAt,value
2022-09-16T00:07:25.807Z,961.17
2022-09-16T00:22:28.004Z,961.27
2022-09-16T00:37:30.321Z,961.18
2022-09-16T00:52:32.588Z,961.17
2022-09-16T01:07:34.839Z,961.17
2022-09-16T01:22:37.071Z,961.13
2022-09-16T01:37:39.317Z,961.24
2022-09-16T01:52:41.730Z,961.32
2022-09-16T02:07:43.988Z,961.42
2022-09-16T02:22:46.158Z,961.64
2022-09-16T02:37:48.419Z,961.78
2022-09-16T02:52:50.701Z,961.99
2022-09-16T03:07:53.043Z,962.25
2022-09-16T03:22:55.318Z,962.44
2022-09-16T03:37:57.557Z,962.52
2022-09-16T03:52:59.780Z,962.69
2022-09-16T04:08:01.982Z,962.67
2022-09-16T04:23:04.254Z,962.61
2022-09-16T04:38:06.491Z,962.63
2022-09-16T04:53:08.686Z,962.6
2022-09-16T05:08:10.915Z,962.61
2022-09-16T05:23:13.112Z,962.63
2022-09-16T05:38:15.442Z,962.65
2022-09-16T05:53:17.838Z,962.67
2022-09-16T06:08:20.024Z,962.61
2022-09-16T06:23:22.327Z,962.67
2022-09-16T06:38:24.619Z,962.73
2022-09-16T06:53:26.855Z,962.69
2022-09-16T07:08:29.140Z,962.73
2022-09-16T07:23:31.336Z,962.75
2022-09-16T07:38:33.548Z,962.75
2022-09-16T07:53:36.021Z,962.77
2022-09-16T08:08:38.249Z,962.74
2022-09-16T08:23:40.676Z,962.86
2022-09-16T08:38:42.883Z,962.72
2022-09-16T08:53:45.178Z,962.71
2022-09-16T09:08:47.427Z,962.76
2022-09-16T09:23:49.623Z,962.74
2022-09-16T09:38:51.868Z,962.61
2022-09-16T09:53:54.093Z,962.58
2022-09-16T10:08:56.297Z,962.52
2022-09-16T10:23:58.526Z,962.49
2022-09-16T10:39:04.474Z,962.49
2022-09-16T10:54:07.432Z,962.47
2022-09-16T11:09:09.722Z,962.46
2022-09-16T11:24:11.985Z,962.21
2022-09-16T11:39:14.205Z,962.18
2022-09-16T11:54:16.587Z,962.18
2022-09-16T12:09:18.841Z,962.13
2022-09-16T12:24:21.159Z,962.08
2022-09-16T12:39:23.373Z,961.98
2022-09-16T12:54:25.570Z,961.95
2022-09-16T13:09:27.964Z,962.01
2022-09-16T13:24:30.378Z,962.12
2022-09-16T13:39:32.603Z,962.17
2022-09-16T13:54:43.191Z,962.19
2022-09-16T14:09:56.026Z,962.25
2022-09-16T14:25:06.898Z,962.14
2022-09-16T14:40:21.539Z,962.25
2022-09-16T14:55:23.883Z,962.4
2022-09-16T15:10:26.103Z,962.47
2022-09-16T15:25:28.333Z,962.76
2022-09-16T15:40:30.938Z,962.6
2022-09-16T15:55:33.233Z,962.74
2022-09-16T16:10:35.501Z,962.6
2022-09-16T16:25:37.819Z,962.56
2022-09-16T16:40:40.157Z,962.44
2022-09-16T16:55:42.387Z,962.4
2022-09-16T17:10:44.576Z,962.45
2022-09-16T17:25:46.805Z,962.29
2022-09-16T17:40:49.040Z,962.25
2022-09-16T17:55:51.301Z,962.3
2022-09-16T18:10:53.658Z,962.13
2022-09-16T18:25:56.111Z,962
2022-09-16T18:40:58.392Z,961.83
2022-09-16T18:56:00.764Z,961.52
2022-09-16T19:11:02.946Z,961.36
2022-09-16T19:26:05.254Z,961.23
2022-09-16T19:41:07.586Z,961.14
2022-09-16T19:56:09.859Z,961
2022-09-16T20:11:12.197Z,960.86
2022-09-16T20:26:14.446Z,960.54
2022-09-16T20:41:16.642Z,960.38
2022-09-16T20:56:18.911Z,960.08
2022-09-16T21:11:21.167Z,959.94
2022-09-16T21:26:23.805Z,959.81
2022-09-16T21:41:26.161Z,959.76
2022-09-16T21:56:28.431Z,960.19
2022-09-16T22:11:30.634Z,960.09
2022-09-16T22:26:32.836Z,960.37
2022-09-16T22:41:35.039Z,960.36
2022-09-16T22:56:37.268Z,960.29
2022-09-16T23:11:39.466Z,960.23
2022-09-16T23:26:41.689Z,960.07
2022-09-16T23:41:43.926Z,960.25
2022-09-16T23:56:46.127Z,960.26
